Time;durP1;ratioP1;P1;durP2;ratioP2;P2;SDS_P1;SDS_P2;PMS_P1;PMS_P2;Temp;Humidity;BMP_temperature;BMP_pressure;BME280_temperature;BME280_humidity;BME280_pressure;Samples;Min_cycle;Max_cycle;Signal;HPM_P1;HPM_P2
2022/10/04 00:02:45;;;;;;;7.57;3.23;;;;;;;10.08;100.00;97197.59;10408444;28;20217;-61
2022/10/04 00:07:50;;;;;;;5.67;2.80;;;;;;;10.04;100.00;97188.38;10411620;28;20304;-63
2022/10/04 00:12:57;;;;;;;11.20;3.70;;;;;;;10.08;100.00;97184.50;10389297;28;20649;-61
2022/10/04 00:18:31;;;;;;;10.63;4.70;;;;;;;9.93;100.00;97195.41;10414758;28;20217;-62
2022/10/04 00:23:34;;;;;;;16.07;4.63;;;;;;;10.05;100.00;97190.03;10407746;28;20236;-63
2022/10/04 00:28:34;;;;;;;12.23;4.33;;;;;;;9.99;100.00;97188.78;10404743;28;20570;-63
2022/10/04 00:33:37;;;;;;;8.10;3.72;;;;;;;10.15;100.00;97194.25;10386421;28;20209;-61
2022/10/04 00:38:37;;;;;;;8.68;4.50;;;;;;;10.21;100.00;97185.00;10384558;28;20280;-61
2022/10/04 00:43:42;;;;;;;12.57;4.28;;;;;;;10.10;100.00;97179.94;10396541;28;20232;-63
2022/10/04 00:48:52;;;;;;;16.52;5.00;;;;;;;10.10;100.00;97185.19;10404885;28;20193;-63
2022/10/04 00:54:21;;;;;;;7.67;3.13;;;;;;;10.17;100.00;97179.22;10407400;28;20383;-62
2022/10/04 00:59:34;;;;;;;9.10;3.40;;;;;;;10.10;100.00;97179.94;10407829;28;20702;-63
2022/10/04 01:04:39;;;;;;;12.40;3.60;;;;;;;10.13;100.00;97177.84;10407391;28;20216;-61
2022/10/04 01:09:52;;;;;;;13.77;4.40;;;;;;;10.13;100.00;97175.22;10403550;28;20197;-62
2022/10/04 01:15:01;;;;;;;9.23;4.30;;;;;;;10.02;100.00;97178.03;10415018;28;20312;-63
2022/10/04 01:20:02;;;;;;;12.40;5.22;;;;;;;10.07;100.00;97167.13;10374199;28;20225;-61
2022/10/04 01:25:03;;;;;;;15.40;5.32;;;;;;;10.00;100.00;97170.31;10405664;28;20576;-63
2022/10/04 01:30:08;;;;;;;15.10;5.77;;;;;;;9.84;100.00;97162.22;10401531;28;20196;-63
2022/10/04 01:35:11;;;;;;;11.30;5.53;;;;;;;9.82;100.00;97167.59;10372167;28;20221;-60
2022/10/04 01:40:11;;;;;;;12.70;5.63;;;;;;;9.93;100.00;97171.03;10412433;28;20255;-63
2022/10/04 01:45:30;;;;;;;14.75;4.85;;;;;;;9.96;100.00;97158.47;10392181;28;20706;-63
2022/10/04 01:50:38;;;;;;;13.07;5.13;;;;;;;9.79;100.00;97165.25;10399564;28;20248;-64
2022/10/04 01:55:40;;;;;;;9.40;4.95;;;;;;;9.85;100.00;97165.66;10400787;28;20240;-63
2022/10/04 02:00:47;;;;;;;10.35;5.70;;;;;;;9.72;100.00;97165.97;10391270;28;20248;-63
2022/10/04 02:05:55;;;;;;;11.55;5.85;;;;;;;9.91;100.00;97162.50;10378192;28;20215;-62
2022/10/04 02:10:56;;;;;;;10.98;5.20;;;;;;;9.76;100.00;97156.88;10399922;28;20706;-63
2022/10/04 02:15:58;;;;;;;10.32;5.75;;;;;;;9.78;100.00;97152.31;10394996;28;20240;-64
2022/10/04 02:20:59;;;;;;;13.50;5.53;;;;;;;9.87;100.00;97155.88;10395667;28;20312;-63
2022/10/04 02:26:06;;;;;;;18.60;5.95;;;;;;;9.80;100.00;97161.69;10381117;28;20319;-64
2022/10/04 02:36:27;;;;;;;11.63;6.27;;;;;;;9.72;100.00;97160.72;10380090;28;20251;-62
2022/10/04 02:41:34;;;;;;;15.23;6.07;;;;;;;9.74;100.00;97156.16;10378115;28;20583;-63
2022/10/04 02:47:02;;;;;;;16.63;6.70;;;;;;;9.67;100.00;97153.31;10403275;28;20269;-62
2022/10/04 02:52:10;;;;;;;17.13;6.83;;;;;;;9.70;100.00;97153.03;10417469;28;20623;-61
2022/10/04 02:57:14;;;;;;;15.20;5.83;;;;;;;9.76;100.00;97144.59;10380615;28;20225;-63
2022/10/04 03:02:28;;;;;;;16.33;7.00;;;;;;;9.80;100.00;97139.91;10393018;28;20255;-63
2022/10/04 03:07:31;;;;;;;17.87;6.53;;;;;;;9.63;100.00;97146.69;10405369;28;20239;-64
2022/10/04 03:12:32;;;;;;;9.17;5.73;;;;;;;9.64;100.00;97143.94;10409098;28;20197;-63
2022/10/04 03:17:33;;;;;;;9.40;5.30;;;;;;;9.79;100.00;97139.09;10394458;28;20703;-62
2022/10/04 03:22:33;;;;;;;10.68;5.50;;;;;;;9.71;100.00;97128.53;10401697;28;20221;-64
2022/10/04 03:27:35;;;;;;;17.67;5.73;;;;;;;9.75;100.00;97131.66;10400068;28;20239;-64
2022/10/04 03:32:37;;;;;;;12.15;5.18;;;;;;;9.74;100.00;97132.63;10403151;28;20231;-64
2022/10/04 03:37:39;;;;;;;11.00;4.80;;;;;;;9.66;100.00;97133.31;10410085;28;20312;-64
2022/10/04 03:42:40;;;;;;;8.70;3.63;;;;;;;9.68;100.00;97125.34;10407465;28;20319;-64
2022/10/04 03:47:43;;;;;;;16.08;4.93;;;;;;;9.84;100.00;97135.25;10399209;28;20272;-62
2022/10/04 03:52:54;;;;;;;17.88;4.15;;;;;;;9.65;100.00;97126.47;10402304;28;20193;-63
2022/10/04 03:57:55;;;;;;;19.95;5.07;;;;;;;9.68;100.00;97130.56;10399768;28;20576;-64
2022/10/04 04:03:02;;;;;;;7.07;4.80;;;;;;;9.55;100.00;97131.69;10399680;28;20216;-64
2022/10/04 04:08:08;;;;;;;10.53;4.50;;;;;;;9.72;100.00;97124.91;10386474;28;20201;-64
2022/10/04 04:13:26;;;;;;;18.55;5.40;;;;;;;9.60;100.00;97136.50;10420648;28;20280;-61
2022/10/04 04:18:29;;;;;;;15.50;5.53;;;;;;;9.68;100.00;97125.34;10407902;28;20204;-63
2022/10/04 04:23:33;;;;;;;10.25;5.32;;;;;;;9.68;100.00;97127.97;10397588;28;20233;-64
2022/10/04 04:28:39;;;;;;;13.75;5.55;;;;;;;9.60;100.00;97124.28;10398565;28;20571;-62
2022/10/04 04:33:46;;;;;;;12.80;5.13;;;;;;;9.60;100.00;97145.19;10386246;28;20209;-62
2022/10/04 04:44:16;;;;;;;11.73;5.00;;;;;;;9.49;100.00;97147.94;10404271;28;20304;-63
2022/10/04 04:49:17;;;;;;;14.05;5.47;;;;;;;9.46;100.00;97149.06;10400113;28;20737;-62
2022/10/04 04:54:21;;;;;;;10.30;5.63;;;;;;;9.50;100.00;97144.38;10392210;28;20213;-63
2022/10/04 04:59:22;;;;;;;14.27;5.53;;;;;;;9.42;100.00;97137.22;10409386;28;20201;-64
2022/10/04 05:04:23;;;;;;;16.58;6.35;;;;;;;9.41;100.00;97148.63;10407000;28;20224;-63
2022/10/04 05:09:27;;;;;;;14.60;6.87;;;;;;;9.52;100.00;97152.91;10383922;28;20555;-64
2022/10/04 05:14:30;;;;;;;16.67;7.60;;;;;;;9.32;100.00;97159.09;10407808;28;20270;-63
2022/10/04 05:19:33;;;;;;;12.53;6.43;;;;;;;9.37;100.00;97162.13;10405504;28;20693;-63
2022/10/04 05:24:39;;;;;;;18.40;6.53;;;;;;;9.50;100.00;97161.88;10385911;28;20257;-62
2022/10/04 05:30:02;;;;;;;11.03;6.43;;;;;;;9.55;100.00;97159.66;10405078;28;20612;-61
2022/10/04 05:35:14;;;;;;;12.17;6.90;;;;;;;9.44;100.00;97166.66;10400820;28;20587;-64
2022/10/04 05:40:26;;;;;;;12.13;6.60;;;;;;;9.46;100.00;97161.28;10395600;28;20216;-63
2022/10/04 05:45:29;;;;;;;13.23;6.53;;;;;;;9.57;100.00;97168.16;10381222;28;20262;-63
2022/10/04 05:50:35;;;;;;;18.43;6.77;;;;;;;9.50;100.00;97162.69;10368633;28;20196;-63
2022/10/04 05:55:53;;;;;;;11.90;6.47;;;;;;;9.49;100.00;97163.63;10385644;28;20227;-62
2022/10/04 06:01:15;;;;;;;9.57;6.27;;;;;;;9.75;100.00;97168.28;10386334;28;20216;-63
2022/10/04 06:06:28;;;;;;;11.10;5.63;;;;;;;9.68;100.00;97173.28;10397886;28;20300;-61
2022/10/04 06:11:52;;;;;;;11.00;6.07;;;;;;;9.91;100.00;97170.34;10383233;28;20189;-63
2022/10/04 06:17:11;;;;;;;11.82;5.88;;;;;;;10.15;100.00;97173.31;10416062;28;20217;-63
2022/10/04 06:22:21;;;;;;;11.77;5.60;;;;;;;10.07;100.00;97169.75;10401272;28;20228;-63
2022/10/04 06:27:26;;;;;;;14.30;5.53;;;;;;;10.09;100.00;97173.03;10393050;28;20232;-60
2022/10/04 06:32:34;;;;;;;15.47;5.20;;;;;;;10.36;100.00;97172.31;10401234;28;20204;-63
2022/10/04 06:37:44;;;;;;;10.23;4.80;;;;;;;10.31;100.00;97164.03;10404685;28;20220;-61
2022/10/04 06:42:54;;;;;;;11.02;4.38;;;;;;;10.38;100.00;97183.44;10401951;28;20311;-63
2022/10/04 06:48:14;;;;;;;9.45;4.13;;;;;;;10.39;100.00;97176.44;10411176;28;20794;-63
2022/10/04 06:53:15;;;;;;;9.20;3.83;;;;;;;10.49;100.00;97188.53;10411586;28;20184;-62
2022/10/04 06:58:28;;;;;;;10.40;3.33;;;;;;;10.52;100.00;97197.88;10412120;28;20193;-63
2022/10/04 07:03:40;;;;;;;13.15;3.42;;;;;;;10.40;100.00;97202.50;10401039;28;20278;-62
2022/10/04 07:08:46;;;;;;;12.38;4.47;;;;;;;10.25;100.00;97212.56;10410005;28;20715;-61
2022/10/04 07:13:56;;;;;;;13.50;3.75;;;;;;;10.31;100.00;97205.94;10411421;28;20208;-61
2022/10/04 07:19:09;;;;;;;16.63;4.53;;;;;;;10.32;100.00;97205.78;10412022;28;20197;-63
2022/10/04 07:24:11;;;;;;;12.90;3.30;;;;;;;10.30;100.00;97209.50;10408872;28;20315;-63
2022/10/04 07:29:22;;;;;;;13.93;3.88;;;;;;;10.48;100.00;97207.00;10394428;28;20612;-63
2022/10/04 07:34:25;;;;;;;8.85;3.50;;;;;;;10.65;100.00;97208.84;10398438;28;20238;-60
2022/10/04 07:39:44;;;;;;;4.78;3.00;;;;;;;10.91;100.00;97210.81;10397542;28;20220;-61
2022/10/04 07:44:56;;;;;;;15.60;3.17;;;;;;;11.35;100.00;97202.28;10381324;28;20235;-61
2022/10/04 07:49:57;;;;;;;8.32;2.60;;;;;;;11.62;100.00;97198.72;10417347;28;20333;-62
2022/10/04 07:55:15;;;;;;;6.00;2.38;;;;;;;12.17;100.00;97196.88;10407385;28;20262;-60
2022/10/04 08:00:19;;;;;;;16.35;2.67;;;;;;;12.34;100.00;97197.78;10409253;28;20702;-62
2022/10/04 08:05:27;;;;;;;9.90;2.47;;;;;;;12.36;100.00;97190.56;10407930;28;20228;-62
2022/10/04 08:10:33;;;;;;;7.28;2.33;;;;;;;12.64;100.00;97197.28;10428217;22;20340;-63
2022/10/04 08:15:36;;;;;;;9.65;2.00;;;;;;;12.72;100.00;97190.44;10411686;28;20211;-65
2022/10/04 08:20:57;;;;;;;6.97;1.83;;;;;;;13.12;100.00;97194.19;10383329;28;20742;-65
2022/10/04 08:26:22;;;;;;;5.55;1.63;;;;;;;12.94;100.00;97202.16;10376676;28;20671;-65
2022/10/04 08:31:51;;;;;;;9.65;1.60;;;;;;;12.93;100.00;97200.53;10396831;28;20240;-63
2022/10/04 08:37:39;;;;;;;11.00;2.10;;;;;;;13.01;100.00;97203.19;10389580;28;20208;-64
2022/10/04 08:43:00;;;;;;;9.25;1.92;;;;;;;12.90;100.00;97204.31;10409917;28;20224;-63
2022/10/04 08:48:25;;;;;;;4.43;1.58;;;;;;;12.85;100.00;97228.44;10410363;28;20588;-65
2022/10/04 08:53:51;;;;;;;6.10;1.45;;;;;;;13.24;100.00;97215.75;10410482;28;20208;-62
2022/10/04 08:59:10;;;;;;;7.60;1.70;;;;;;;13.33;100.00;97205.09;10409941;28;20193;-62
2022/10/04 09:04:39;;;;;;;8.90;1.60;;;;;;;13.61;100.00;97201.38;10411703;28;20227;-62
2022/10/04 09:09:55;;;;;;;7.00;2.00;;;;;;;13.60;97.25;97187.38;10409370;28;20246;-65
2022/10/04 09:15:17;;;;;;;6.03;1.50;;;;;;;13.91;95.36;97187.53;10411121;28;20205;-62
2022/10/04 09:20:43;;;;;;;6.82;1.52;;;;;;;14.32;92.17;97168.22;10407627;28;20651;-65
2022/10/04 09:25:48;;;;;;;6.35;1.80;;;;;;;14.82;91.13;97168.06;10409742;28;20287;-64
2022/10/04 09:30:54;;;;;;;4.25;1.13;;;;;;;14.61;87.55;97153.66;10410447;28;20621;-62
2022/10/04 09:36:23;;;;;;;7.45;1.50;;;;;;;15.30;84.08;97131.84;10410552;28;20188;-62
2022/10/04 09:41:34;;;;;;;5.18;1.50;;;;;;;15.20;87.21;97162.91;10409801;28;20711;-63
2022/10/04 09:47:09;;;;;;;4.80;1.30;;;;;;;14.42;88.55;97171.47;10409351;28;20683;-64
2022/10/04 09:52:34;;;;;;;9.13;1.73;;;;;;;13.99;92.43;97199.06;10409880;28;20204;-63
2022/10/04 09:57:43;;;;;;;9.63;1.73;;;;;;;15.19;91.58;97192.94;10408516;28;20200;-63
2022/10/04 10:03:01;;;;;;;6.40;1.85;;;;;;;14.19;92.45;97205.63;10409618;28;20221;-63
2022/10/04 10:08:25;;;;;;;7.32;1.92;;;;;;;14.08;91.67;97200.69;10409589;28;20235;-62
2022/10/04 10:13:38;;;;;;;8.27;1.67;;;;;;;14.72;91.19;97197.28;10408945;28;20232;-61
2022/10/04 10:19:04;;;;;;;5.50;1.30;;;;;;;15.81;85.84;97165.63;10410341;28;20562;-64
2022/10/04 10:24:29;;;;;;;5.05;1.40;;;;;;;15.99;84.67;97174.06;10417021;28;20227;-63
2022/10/04 10:29:34;;;;;;;8.20;1.88;;;;;;;16.58;81.22;97146.00;10416804;28;20212;-65
2022/10/04 10:34:55;;;;;;;3.90;1.30;;;;;;;16.85;80.82;97149.00;10415648;28;20299;-62
2022/10/04 10:40:08;;;;;;;5.88;1.38;;;;;;;16.25;82.03;97161.41;10416360;28;20192;-64
2022/10/04 10:45:43;;;;;;;4.95;1.30;;;;;;;15.59;81.23;97154.06;10416790;28;20291;-64
2022/10/04 10:51:01;;;;;;;9.52;1.52;;;;;;;15.56;83.86;97194.84;10415197;28;20227;-63
2022/10/04 10:56:07;;;;;;;8.40;1.85;;;;;;;15.54;82.61;97167.78;10416370;28;20637;-63
2022/10/04 11:01:36;;;;;;;5.68;1.42;;;;;;;15.83;84.49;97201.47;10415590;28;20216;-64
2022/10/04 11:07:18;;;;;;;7.82;1.10;;;;;;;16.11;78.84;97139.25;10393885;28;20235;-64
2022/10/04 11:12:33;;;;;;;3.38;0.90;;;;;;;16.28;79.79;97148.66;10415578;28;20304;-64
2022/10/04 11:17:49;;;;;;;8.82;1.48;;;;;;;15.12;81.82;97169.88;10414692;28;20195;-63
2022/10/04 11:23:13;;;;;;;8.20;2.17;;;;;;;14.72;82.46;97163.00;10415126;28;20319;-65
2022/10/04 11:28:19;;;;;;;6.75;1.83;;;;;;;15.23;85.27;97179.22;10414324;28;20667;-63
2022/10/04 11:33:34;;;;;;;7.18;1.38;;;;;;;15.80;79.20;97111.16;10411655;28;20201;-62
2022/10/04 11:38:47;;;;;;;5.18;1.40;;;;;;;15.31;79.51;97121.09;10413637;28;20216;-63
2022/10/04 11:43:55;;;;;;;4.45;1.45;;;;;;;17.22;76.26;97104.81;10414558;28;20225;-62
2022/10/04 11:49:27;;;;;;;5.22;1.67;;;;;;;17.40;75.39;97097.25;10414709;28;20335;-62
2022/10/04 11:54:40;;;;;;;7.57;1.40;;;;;;;17.17;73.50;97076.28;10412634;28;20267;-61
2022/10/04 12:00:05;;;;;;;5.60;0.90;;;;;;;18.36;68.94;97037.53;10414299;28;20196;-61
2022/10/04 12:05:32;;;;;;;6.05;1.25;;;;;;;14.57;76.93;97116.22;10413004;28;20207;-62
2022/10/04 12:10:38;;;;;;;4.20;1.55;;;;;;;14.63;80.39;97147.19;10412386;28;20250;-61
2022/10/04 12:15:51;;;;;;;2.40;1.02;;;;;;;15.34;80.81;97146.31;10412112;28;20192;-62
2022/10/04 12:21:15;;;;;;;4.63;1.27;;;;;;;14.89;80.39;97147.94;10413001;28;20767;-62
2022/10/04 12:26:54;;;;;;;2.17;1.15;;;;;;;15.82;75.68;97085.41;10413059;28;20275;-63
2022/10/04 12:32:17;;;;;;;7.28;1.10;;;;;;;16.90;70.46;97033.66;10412409;28;20209;-63
2022/10/04 12:37:31;;;;;;;4.05;1.20;;;;;;;18.08;66.27;96998.66;10410014;28;20223;-63
2022/10/04 12:42:46;;;;;;;3.78;1.10;;;;;;;18.03;66.37;97003.75;10412069;28;20230;-63
2022/10/04 12:48:20;;;;;;;1.85;1.02;;;;;;;16.63;68.89;97014.03;10411682;28;20637;-62
2022/10/04 12:53:34;;;;;;;2.35;0.98;;;;;;;19.57;61.38;96954.38;10411972;28;20240;-64
2022/10/04 12:58:52;;;;;;;5.40;1.10;;;;;;;19.49;60.83;96932.53;10411823;28;20188;-64
2022/10/04 13:03:53;;;;;;;1.73;0.80;;;;;;;20.58;57.22;96906.91;10411734;28;20220;-63
2022/10/04 13:09:17;;;;;;;4.88;1.35;;;;;;;19.53;60.12;96945.19;10410127;28;20679;-63
2022/10/04 13:14:34;;;;;;;4.25;1.30;;;;;;;17.50;66.34;97016.66;10411023;28;20323;-62
2022/10/04 13:19:56;;;;;;;2.42;1.05;;;;;;;20.13;59.86;96958.31;10409969;28;20192;-61
2022/10/04 13:25:41;;;;;;;4.22;1.00;;;;;;;20.14;58.10;96940.53;10411280;28;20212;-62
2022/10/04 13:31:03;;;;;;;4.60;1.33;;;;;;;19.02;60.20;96951.97;10408521;28;20217;-63
2022/10/04 13:36:12;;;;;;;5.55;1.02;;;;;;;19.25;58.53;96918.88;10409015;28;20279;-58
2022/10/04 13:41:19;;;;;;;3.30;0.88;;;;;;;19.48;55.78;96870.59;10406277;28;20235;-59
2022/10/04 13:46:49;;;;;;;3.47;0.88;;;;;;;17.66;61.77;96952.78;10403458;28;20192;-59
2022/10/04 13:57:42;;;;;;;4.13;1.17;;;;;;;18.48;61.58;96968.81;10402012;28;20207;-60
2022/10/04 14:03:06;;;;;;;3.58;0.93;;;;;;;19.36;58.47;96934.19;10407345;28;20239;-62
2022/10/04 14:08:47;;;;;;;2.92;1.23;;;;;;;18.95;59.02;96937.88;10400136;28;20193;-61
2022/10/04 14:14:28;;;;;;;2.38;0.95;;;;;;;20.33;53.97;96876.78;10405839;28;20252;-62
2022/10/04 14:20:00;;;;;;;2.80;1.00;;;;;;;19.26;56.39;96909.88;10394906;28;20189;-62
2022/10/04 14:25:38;;;;;;;2.22;0.80;;;;;;;20.01;53.00;96855.47;10503898;22;20247;-58
2022/10/04 14:30:48;;;;;;;2.05;1.10;;;;;;;22.03;49.77;96842.75;10484269;28;20198;-58
2022/10/04 14:35:56;;;;;;;3.15;1.00;;;;;;;19.64;52.50;96832.09;10469645;28;20270;-56
2022/10/04 14:41:15;;;;;;;2.33;0.70;;;;;;;22.80;48.56;96842.84;10471743;28;20253;-59
2022/10/04 14:46:43;;;;;;;1.33;0.80;;;;;;;24.08;45.44;96809.16;10457565;28;20188;-59
2022/10/04 14:51:54;;;;;;;4.32;2.47;;;;;;;25.67;41.86;96783.06;10457210;28;20208;-59
2022/10/04 14:57:03;;;;;;;3.22;0.90;;;;;;;26.38;40.81;96776.78;10490791;28;20187;-60
2022/10/04 15:02:12;;;;;;;4.93;1.08;;;;;;;26.04;41.18;96775.16;10464403;28;20222;-60
2022/10/04 15:07:19;;;;;;;4.20;1.10;;;;;;;28.67;37.11;96763.69;10476588;28;20196;-58
2022/10/04 15:12:23;;;;;;;5.20;0.80;;;;;;;23.67;45.65;96811.84;10456327;28;20642;-58
2022/10/04 15:17:33;;;;;;;3.72;0.77;;;;;;;24.99;43.05;96796.66;10479820;28;20203;-60
2022/10/04 15:22:40;;;;;;;2.75;1.13;;;;;;;21.95;50.05;96870.56;10492347;28;20730;-59
2022/10/04 15:27:49;;;;;;;3.95;2.78;;;;;;;20.71;52.83;96878.59;10468085;28;20202;-58
2022/10/04 15:32:59;;;;;;;18.05;7.22;;;;;;;21.23;52.62;96884.47;10481442;28;20228;-57
2022/10/04 15:38:22;;;;;;;16.05;14.48;;;;;;;18.29;60.44;96950.00;10483934;28;20731;-59
2022/10/04 15:43:26;;;;;;;6.50;1.70;;;;;;;16.96;64.81;96986.28;10493169;28;20223;-60
2022/10/04 15:48:50;;;;;;;4.05;1.55;;;;;;;15.54;72.20;97048.16;10474437;28;20693;-60
2022/10/04 15:54:09;;;;;;;6.10;3.38;;;;;;;14.24;80.10;97105.81;10461867;28;20249;-61
2022/10/04 15:59:43;;;;;;;4.47;2.53;;;;;;;13.46;86.21;97088.00;10498226;28;20665;-61
2022/10/04 16:05:06;;;;;;;2.85;1.48;;;;;;;12.80;94.28;97098.44;10497185;28;20254;-62
2022/10/04 16:10:14;;;;;;;3.65;1.70;;;;;;;12.07;99.96;97087.50;10496313;28;20195;-63
2022/10/04 16:15:20;;;;;;;4.22;3.10;;;;;;;11.58;100.00;97095.06;10497463;28;20234;-63
2022/10/04 16:20:49;;;;;;;5.95;1.40;;;;;;;11.18;100.00;97084.09;10495540;28;20187;-61
2022/10/04 16:25:55;;;;;;;7.28;5.20;;;;;;;11.32;100.00;97087.16;10497064;28;20226;-63
2022/10/04 16:31:19;;;;;;;8.02;2.80;;;;;;;11.37;100.00;97092.75;10495512;28;20199;-63
2022/10/04 16:36:26;;;;;;;5.20;2.83;;;;;;;11.25;100.00;97092.16;10496447;28;20218;-63
2022/10/04 16:41:35;;;;;;;10.57;3.35;;;;;;;11.04;100.00;97087.22;10495044;28;20302;-63
2022/10/04 16:46:37;;;;;;;7.60;3.47;;;;;;;10.80;100.00;97091.28;10495030;28;20231;-63
2022/10/04 16:52:01;;;;;;;13.40;9.43;;;;;;;10.46;100.00;97104.16;10494580;28;20203;-63
2022/10/04 16:57:12;;;;;;;6.47;2.10;;;;;;;10.47;100.00;97111.06;10495851;28;20187;-63
2022/10/04 17:02:45;;;;;;;4.70;2.77;;;;;;;10.32;100.00;97116.75;10494243;28;20696;-63
2022/10/04 17:08:10;;;;;;;6.90;2.87;;;;;;;10.15;100.00;97130.59;10472148;28;20286;-63
2022/10/04 17:13:22;;;;;;;9.17;2.80;;;;;;;9.90;100.00;97134.66;10494946;28;20249;-63
2022/10/04 17:18:54;;;;;;;7.20;2.97;;;;;;;9.82;100.00;97140.63;10493664;28;20191;-63
2022/10/04 17:24:18;;;;;;;4.30;2.83;;;;;;;9.54;100.00;97137.91;10494030;28;20223;-63
2022/10/04 17:29:36;;;;;;;7.60;3.23;;;;;;;9.50;100.00;97120.84;10492211;28;20194;-62
2022/10/04 17:34:56;;;;;;;9.73;3.50;;;;;;;9.25;100.00;97123.06;10488567;28;20210;-63
2022/10/04 17:40:16;;;;;;;7.93;3.60;;;;;;;9.24;100.00;97129.25;10493454;28;20664;-63
2022/10/04 17:45:20;;;;;;;4.57;2.60;;;;;;;9.28;100.00;97133.25;10493625;28;20811;-63
2022/10/04 17:55:54;;;;;;;8.13;3.43;;;;;;;9.01;100.00;97138.31;10492242;28;20228;-63
2022/10/04 18:01:01;;;;;;;4.40;2.77;;;;;;;9.17;100.00;97130.75;10491777;28;20223;-60
2022/10/04 18:06:12;;;;;;;6.00;2.57;;;;;;;9.17;100.00;97137.78;10492196;28;20558;-63
2022/10/04 18:11:24;;;;;;;5.43;2.40;;;;;;;9.12;100.00;97138.19;10491312;28;20227;-63
2022/10/04 18:16:43;;;;;;;9.40;5.33;;;;;;;8.98;100.00;97135.97;10492911;28;20195;-63
2022/10/04 18:21:48;;;;;;;6.50;2.93;;;;;;;9.06;100.00;97138.72;10491354;28;20237;-63
2022/10/04 18:26:59;;;;;;;6.57;2.77;;;;;;;9.05;100.00;97144.91;10493129;28;20191;-63
2022/10/04 18:32:26;;;;;;;7.87;3.03;;;;;;;8.97;100.00;97144.78;10492993;28;20207;-63
2022/10/04 18:37:39;;;;;;;7.00;4.33;;;;;;;8.92;100.00;97151.22;10493217;28;20195;-63
2022/10/04 18:42:41;;;;;;;5.03;3.17;;;;;;;8.75;100.00;97157.94;10498412;28;20234;-63
2022/10/04 18:47:42;;;;;;;5.57;3.03;;;;;;;8.69;100.00;97144.59;10499972;28;20188;-63
2022/10/04 18:52:48;;;;;;;5.40;2.30;;;;;;;8.78;100.00;97143.78;10500707;28;20207;-63
2022/10/04 19:03:29;;;;;;;5.17;2.40;;;;;;;8.81;100.00;97140.91;10499061;28;20322;-62
2022/10/04 19:08:32;;;;;;;8.33;2.20;;;;;;;8.83;100.00;97136.34;10499653;28;20198;-63
2022/10/04 19:14:00;;;;;;;5.07;1.90;;;;;;;8.89;100.00;97140.22;10499528;28;20215;-63
2022/10/04 19:19:13;;;;;;;4.17;2.60;;;;;;;8.81;100.00;97143.50;10499729;28;20223;-62
2022/10/04 19:24:30;;;;;;;12.33;6.93;;;;;;;8.87;100.00;97132.53;10498905;28;20235;-62
2022/10/04 19:29:45;;;;;;;3.10;1.40;;;;;;;8.88;100.00;97135.94;10498169;28;20207;-62
2022/10/04 19:34:58;;;;;;;7.97;2.97;;;;;;;8.87;100.00;97152.59;10498898;28;20219;-63
2022/10/04 19:40:22;;;;;;;4.90;1.80;;;;;;;8.78;100.00;97156.84;10498989;28;20274;-61
2022/10/04 19:45:41;;;;;;;3.37;2.47;;;;;;;8.64;100.00;97150.22;10491177;28;20211;-62
2022/10/04 19:50:47;;;;;;;4.67;1.90;;;;;;;8.68;100.00;97155.97;10498056;28;20207;-61
2022/10/04 19:55:55;;;;;;;3.43;1.80;;;;;;;8.84;100.00;97153.69;10497811;28;20705;-63
2022/10/04 20:00:56;;;;;;;2.40;1.40;;;;;;;9.08;100.00;97142.88;10497881;28;20223;-61
2022/10/04 20:05:56;;;;;;;4.40;1.50;;;;;;;9.24;100.00;97150.16;10497782;28;20496;-62
2022/10/04 20:11:32;;;;;;;4.70;1.47;;;;;;;9.19;100.00;97162.81;10496059;28;20207;-62
2022/10/04 20:16:47;;;;;;;3.03;1.40;;;;;;;9.29;100.00;97162.81;10490138;28;20203;-62
2022/10/04 20:21:47;;;;;;;4.07;1.87;;;;;;;9.20;100.00;97164.44;10497340;28;20226;-63
2022/10/04 20:26:51;;;;;;;2.43;1.50;;;;;;;9.27;100.00;97175.22;10495849;28;20184;-62
2022/10/04 20:31:52;;;;;;;3.13;1.53;;;;;;;9.38;100.00;97172.44;10496885;28;20293;-62
2022/10/04 20:36:52;;;;;;;4.47;1.50;;;;;;;9.49;100.00;97168.88;10496681;28;20187;-62
2022/10/04 20:42:18;;;;;;;2.73;1.43;;;;;;;9.45;100.00;97167.50;10496505;28;20717;-62
2022/10/04 20:47:28;;;;;;;2.47;1.30;;;;;;;9.48;100.00;97175.06;10496345;28;20202;-62
2022/10/04 20:52:31;;;;;;;4.00;1.37;;;;;;;9.43;100.00;97172.03;10494702;28;20292;-62
2022/10/04 20:57:31;;;;;;;2.60;1.30;;;;;;;9.37;100.00;97178.66;10477852;28;20192;-62
2022/10/04 21:02:33;;;;;;;4.00;1.60;;;;;;;9.33;100.00;97174.66;10467668;28;20231;-62
2022/10/04 21:07:33;;;;;;;2.37;1.13;;;;;;;9.10;100.00;97180.13;10452295;28;20196;-62
2022/10/04 21:12:33;;;;;;;4.90;1.50;;;;;;;9.01;100.00;97193.19;10461164;28;20218;-62
2022/10/04 21:17:35;;;;;;;6.30;1.87;;;;;;;8.91;100.00;97195.78;10495146;28;20195;-61
2022/10/04 21:22:36;;;;;;;4.87;1.67;;;;;;;8.77;100.00;97199.59;10464125;28;20239;-63
2022/10/04 21:27:38;;;;;;;6.47;1.73;;;;;;;8.59;100.00;97190.72;10452977;28;20199;-62
2022/10/04 21:32:39;;;;;;;3.27;1.60;;;;;;;8.62;100.00;97208.75;10456589;28;20214;-63
2022/10/04 21:37:39;;;;;;;3.33;1.83;;;;;;;8.61;100.00;97202.72;10478284;28;20206;-62
2022/10/04 21:42:39;;;;;;;4.10;1.67;;;;;;;8.54;100.00;97210.22;10476472;28;20698;-62
2022/10/04 21:47:40;;;;;;;5.03;1.80;;;;;;;8.39;100.00;97201.91;10462462;28;20195;-61
2022/10/04 21:52:40;;;;;;;5.20;1.50;;;;;;;8.30;100.00;97187.03;10466993;28;20219;-61
2022/10/04 21:57:40;;;;;;;2.50;1.50;;;;;;;8.41;100.00;97191.34;10486191;28;20199;-64
2022/10/04 22:02:41;;;;;;;5.03;1.30;;;;;;;8.36;100.00;97180.44;10488380;28;20219;-62
2022/10/04 22:07:42;;;;;;;2.73;1.50;;;;;;;8.38;100.00;97173.31;10467085;28;20283;-61
2022/10/04 22:12:42;;;;;;;4.53;1.63;;;;;;;8.26;100.00;97169.16;10457539;28;20207;-62
2022/10/04 22:17:42;;;;;;;3.43;1.27;;;;;;;8.47;100.00;97162.13;10473141;28;20192;-61
2022/10/04 22:22:43;;;;;;;1.90;1.10;;;;;;;8.50;100.00;97159.25;10454627;28;20744;-61
2022/10/04 22:27:44;;;;;;;5.40;1.50;;;;;;;8.59;100.00;97157.63;10470561;28;20670;-61
2022/10/04 22:32:44;;;;;;;2.27;1.53;;;;;;;8.66;100.00;97157.91;10478485;28;20239;-61
2022/10/04 22:37:46;;;;;;;1.50;1.27;;;;;;;8.95;100.00;97155.34;10469078;28;20227;-61
2022/10/04 22:42:56;;;;;;;4.30;1.30;;;;;;;8.97;100.00;97129.09;10470082;28;20234;-61
2022/10/04 22:47:58;;;;;;;1.33;0.93;;;;;;;8.90;100.00;97108.72;10462794;28;20187;-61
2022/10/04 22:53:04;;;;;;;2.37;1.20;;;;;;;9.00;100.00;97087.00;10465802;28;20646;-61
2022/10/04 22:58:04;;;;;;;3.70;1.70;;;;;;;8.75;100.00;97087.41;10449135;28;20701;-62
2022/10/04 23:03:30;;;;;;;5.03;1.57;;;;;;;8.55;100.00;97096.19;10470719;28;20215;-63
2022/10/04 23:08:30;;;;;;;4.83;1.30;;;;;;;8.61;100.00;97087.00;10482934;28;20195;-64
2022/10/04 23:13:30;;;;;;;2.23;1.30;;;;;;;8.59;100.00;97066.22;10456354;28;20844;-63
2022/10/04 23:18:31;;;;;;;2.77;1.20;;;;;;;8.59;100.00;97066.22;10450573;28;20685;-63
2022/10/04 23:23:32;;;;;;;4.20;1.53;;;;;;;8.55;100.00;97062.22;10471243;28;20239;-63
2022/10/04 23:28:32;;;;;;;1.50;1.27;;;;;;;8.47;100.00;97062.06;10475532;28;20205;-63
2022/10/04 23:33:33;;;;;;;2.00;1.13;;;;;;;8.46;100.00;97053.41;10489186;28;20208;-64
2022/10/04 23:38:33;;;;;;;2.87;1.10;;;;;;;8.43;100.00;97050.22;10455759;28;20245;-64
2022/10/04 23:43:33;;;;;;;2.00;1.37;;;;;;;8.44;100.00;97042.28;10459353;28;20804;-64
2022/10/04 23:48:34;;;;;;;1.77;1.10;;;;;;;8.48;100.00;97038.41;10482208;28;20657;-63
2022/10/04 23:53:35;;;;;;;0.80;0.80;;;;;;;8.47;100.00;97038.56;10478708;28;20214;-63
2022/10/04 23:58:37;;;;;;;4.97;1.07;;;;;;;8.55;100.00;97023.88;10470272;28;20277;-65
